Flight Track Log - Related Links

Times and Time Zones

All times are in EDT time to prevent confusion due to time zone crossing. See the FLG3395 flight status page for this flight to view local times or setup timezone preferences in your user account.

Time Position Orientation Groundspeed Altitude Reporting Facility
EDT Latitude Longitude Course Direction KTS MPH feet Rate Location/Type
Thu 09:35:45 PM 40.6333 -73.8333 246° West 157 181 1,900  Level New York TRACON
Thu 09:36:45 PM 40.6167 -73.8833 246° West 190 219 4,700 2,368 Climbing New York TRACON
Thu 09:37:39 PM 40.5667 -73.9333 217° Southwest 243 280 6,400 2,550 Climbing New York TRACON
Thu 09:38:00 PM 40.4577 -74.1267 232° Southwest  Level Estimated
Thu 09:38:45 PM 40.5000 -73.9833 210° Southwest 279 321 9,800  Level New York TRACON
Thu 09:39:00 PM 40.4120 -74.2133 217° Southwest  Level Estimated
Thu 09:40:00 PM 40.3662 -74.2998 229° Southwest  Level Estimated
Thu 09:40:54 PM 40.3789 -74.1847 232° Southwest 347 399 11,400  Level New York Center
Thu 09:41:00 PM 40.3204 -74.3862 246° West  Level Estimated
Thu 09:41:54 PM 40.3150 -74.3014 234° Southwest 358 412 14,700  Level New York Center
Thu 09:42:54 PM 40.2600 -74.3992 234° Southwest 364 419 16,500 1,150 Climbing New York Center
Thu 09:43:54 PM 40.2022 -74.5131 236° Southwest 379 436 17,000 400 Climbing New York Center
Thu 09:44:54 PM 40.1875 -74.6428 262° West 362 417 17,300 500 Climbing New York Center
Thu 09:45:54 PM 40.1836 -74.7592 268° West 324 373 18,000 350 Climbing New York Center
Thu 09:46:54 PM 40.1742 -74.8564 263° West 309 356 18,000  Level New York Center
Thu 09:47:54 PM 40.1639 -74.9728 263° West 301 346 18,000  Level New York Center
Thu 09:48:54 PM 40.1536 -75.0808 263° West 301 346 18,000  Level New York Center
Thu 09:49:54 PM 40.1456 -75.1861 264° West 301 346 18,000  Level New York Center
Thu 09:50:54 PM 40.1347 -75.3050 263° West 306 352 18,000  Level New York Center
Thu 09:51:54 PM 40.1011 -75.4222 249° West 345 397 18,000  Level New York Center
Thu 09:52:54 PM 40.0328 -75.5153 226° Southwest 345 397 18,000  Level New York Center
Thu 09:53:54 PM 39.9642 -75.6108 227° Southwest 366 421 18,000  Level New York Center
Thu 09:54:54 PM 39.8997 -75.7064 229° Southwest 361 415 18,000 -150 Level New York Center
Thu 09:55:54 PM 39.8497 -75.8031 236° Southwest 328 377 17,700 -700 Descending New York Center
Thu 09:56:54 PM 39.8044 -75.8889 236° Southwest 303 349 16,600 -850 Descending New York Center
Thu 09:57:54 PM 39.7611 -75.9750 237° Southwest 297 342 16,000 -350 Descending New York Center
Thu 09:58:54 PM 39.7111 -76.0631 234° Southwest 297 342 15,900 -200 Descending New York Center
Thu 09:59:54 PM 39.6722 -76.1436 238° Southwest 297 342 15,600 -715 Descending New York Center
Thu 10:01:25 PM 39.6167 -76.2833 243° Southwest 285 328 14,100 -917 Descending Potomac TRACON
Thu 10:02:31 PM 39.6167 -76.4000 270° West 282 325 13,200 -952 Descending Potomac TRACON
Thu 10:03:31 PM 39.5667 -76.4833 232° Southwest 294 338 12,100 -550 Descending Potomac TRACON
Thu 10:04:31 PM 39.5000 -76.5167 201° Southwest 294 338 12,100 -50 Level Potomac TRACON
Thu 10:05:31 PM 39.4167 -76.5500 197° South 294 338 12,000 -53 Descending Potomac TRACON
Thu 10:06:25 PM 39.3500 -76.5833 201° Southwest 287 330 12,000 -368 Level Potomac TRACON
Thu 10:07:25 PM 39.2833 -76.6167 201° Southwest 291 335 11,300 -850 Descending Potomac TRACON
Thu 10:08:25 PM 39.2000 -76.6500 197° South 283 326 10,300 -650 Descending Potomac TRACON
Thu 10:09:25 PM 39.1333 -76.7000 210° Southwest 285 328 10,000 -143 Descending Potomac TRACON
Thu 10:10:31 PM 39.0667 -76.7833 224° Southwest 283 326 10,000 -595 Level Potomac TRACON
Thu 10:11:26 PM 39.0167 -76.8333 218° Southwest 273 314 8,800 -1,513 Descending Potomac TRACON
Thu 10:12:26 PM 38.9667 -76.9000 226° Southwest 264 304 7,100 -1,412 Descending Potomac TRACON
Thu 10:13:25 PM 38.9000 -76.9333 201° Southwest 275 316 6,000 -1,190 Descending Potomac TRACON
Thu 10:14:32 PM 38.8167 -76.9500 189° South 275 316 4,600 -1,370 Descending Potomac TRACON
Thu 10:15:32 PM 38.7500 -76.9333 169° South 267 307 3,100 -1,150 Descending Potomac TRACON
Thu 10:16:32 PM 38.7000 -76.9833 218° Southwest 218 251 2,300 -550 Descending Potomac TRACON
Thu 10:17:32 PM 38.7333 -77.0167 322° Northwest 204 235 2,000 -450 Descending Potomac TRACON
Thu 10:18:32 PM 38.7833 -77.0333 345° North 155 178 1,400 -714 Descending Potomac TRACON
Thu 10:19:38 PM 38.8167 -77.0333 360° North 130 150 500 -818 Descending Potomac TRACON

Login

Don't have an account? Register now (free) for customized features, flight alerts, and more!